Tuesday, May 21, 2019, 11:03 PM EDT
Back to Local

KDMH, Baltimore Downtown

Location: Baltimore, MD, United States Lat: 39.283
Local Time: 11:03 PM EDT ( 3:03 GMT) Lon: -76.617
Time Zone: US/Eastern Elev: 19 ft

Show me the last for .
Show Coded

Time T Td Feel RH Dir Speed Gust Alt SLP Vis Weather Sky Remarks
2019-05-21 22:54 67 40 - 37 - - - 30.12 30.11 0 None
2019-05-21 21:54 68 39 - 34 - - - 30.11 30.11 0 None
2019-05-21 20:54 69 38 - 31 - - - 30.09 30.09 0 None
2019-05-21 19:54 70 40 - 33 - - - 30.07 30.06 0 6-hr Min Temp (8pm): 69.1°F
6-hr Max Temp (8pm): 72.0°F
2019-05-21 18:54 70 39 - 32 - - - 30.05 30.05 0 None
2019-05-21 17:54 71 39 - 31 - - - 30.05 30.05 0 None
2019-05-21 16:54 72 39 - 30 - - - 30.04 30.04 0 None
2019-05-21 15:54 72 40 - 31 - - - 30.03 30.03 0 None
2019-05-21 14:54 71 42 - 35 - - - 30.02 30.02 0 None
2019-05-21 13:54 69 40 - 34 - - - 30.03 30.03 0 6-hr Min Temp (2pm): 62.1°F
6-hr Max Temp (2pm): 69.1°F
2019-05-21 12:54 67 39 - 35 - - - 30.04 30.04 0 None
2019-05-21 11:54 67 41 - 38 - - - 30.04 30.04 0 None
2019-05-21 10:54 65 42 - 43 - - - 30.05 30.05 0 None
2019-05-21 09:54 64 42 - 44 - - - 30.05 30.04 0 None
2019-05-21 08:54 63 42 - 46 - - - 30.03 30.03 0 None
2019-05-21 07:54 63 43 - 48 - - - 30.02 30.01 0 24-hr Precip Total (8am): 0.03"
6-hr Min Temp (8am): 62.1°F
6-hr Max Temp (8am): 71.1°F
2019-05-21 06:54 63 44 - 50 - - - 29.99 29.99 0 None
2019-05-21 05:54 63 47 - 55 - - - 29.96 29.96 0 None
2019-05-21 04:54 65 48 - 54 - - - 29.94 29.94 0 None
2019-05-21 03:54 67 49 - 52 - - - 29.92 29.92 0 None
2019-05-21 02:54 69 48 - 47 - - - 29.91 29.90 0 None
2019-05-21 01:54 72 50 76 45 - - - 29.89 29.88 0 6-hr Min Temp (2am): 72.0°F
6-hr Max Temp (2am): 84.0°F
2019-05-21 00:54 73 51 76 46 - - - 29.88 29.87 0 24-hr Min Temp (1am): 73.0°F
24-hr Max Temp (1am): 90.0°F
2019-05-20 23:54 76 51 77 41 - - - 29.87 29.87 0 None

Support USWX by starting your Amazon purchase here.